createdAt,value
2022-10-18T00:01:58.418Z,100.00
2022-10-18T00:04:31.355Z,100.00
2022-10-18T00:07:04.365Z,100.00
2022-10-18T00:09:37.164Z,100.00
2022-10-18T00:12:09.996Z,100.00
2022-10-18T00:14:44.219Z,100.00
2022-10-18T00:17:17.053Z,100.00
2022-10-18T00:19:50.417Z,100.00
2022-10-18T00:22:23.785Z,100.00
2022-10-18T00:24:56.551Z,100.00
2022-10-18T00:27:30.644Z,100.00
2022-10-18T00:30:05.223Z,100.00
2022-10-18T00:32:38.477Z,100.00
2022-10-18T00:35:11.292Z,100.00
2022-10-18T00:37:44.121Z,100.00
2022-10-18T00:40:16.938Z,100.00
2022-10-18T00:42:49.744Z,100.00
2022-10-18T00:45:25.816Z,100.00
2022-10-18T00:48:06.290Z,100.00
2022-10-18T00:50:39.600Z,100.00
2022-10-18T00:53:17.392Z,100.00
2022-10-18T00:55:50.755Z,100.00
2022-10-18T00:58:23.677Z,100.00
2022-10-18T01:03:20.711Z,100.00
2022-10-18T01:05:53.737Z,100.00
2022-10-18T01:08:41.665Z,100.00
2022-10-18T01:11:32.990Z,100.00
2022-10-18T01:14:22.569Z,100.00
2022-10-18T01:17:08.794Z,100.00
2022-10-18T01:20:16.630Z,100.00
2022-10-18T01:22:58.391Z,100.00
2022-10-18T01:25:41.266Z,100.00
2022-10-18T01:28:31.436Z,100.00
2022-10-18T01:31:09.857Z,100.00
2022-10-18T01:33:47.156Z,100.00
2022-10-18T01:36:24.503Z,100.00
2022-10-18T01:39:01.224Z,100.00
2022-10-18T01:41:36.868Z,100.00
2022-10-18T01:44:13.916Z,100.00
2022-10-18T01:46:48.740Z,100.00
2022-10-18T01:49:21.740Z,100.00
2022-10-18T01:51:55.062Z,100.00
2022-10-18T01:54:32.702Z,100.00
2022-10-18T01:57:13.307Z,100.00
2022-10-18T01:59:54.855Z,100.00
2022-10-18T02:02:43.643Z,100.00
2022-10-18T02:05:26.043Z,100.00
2022-10-18T02:08:22.044Z,100.00
2022-10-18T02:11:00.272Z,100.00
2022-10-18T02:13:38.559Z,100.00
2022-10-18T02:16:15.056Z,100.00
2022-10-18T02:18:53.919Z,100.00
2022-10-18T02:21:29.306Z,100.00
2022-10-18T02:24:03.779Z,100.00
2022-10-18T02:26:36.784Z,100.00
2022-10-18T02:29:10.393Z,100.00
2022-10-18T02:31:46.760Z,100.00
2022-10-18T02:34:23.873Z,100.00
2022-10-18T02:37:00.465Z,100.00
2022-10-18T02:39:37.170Z,100.00
2022-10-18T02:42:12.112Z,100.00
2022-10-18T02:44:44.962Z,100.00
2022-10-18T02:47:17.754Z,100.00
2022-10-18T02:49:51.896Z,100.00
2022-10-18T02:52:24.690Z,100.00
2022-10-18T02:54:57.452Z,100.00
2022-10-18T02:57:30.483Z,100.00
2022-10-18T03:00:04.530Z,100.00
2022-10-18T03:02:37.318Z,100.00
2022-10-18T03:05:11.567Z,100.00
2022-10-18T03:07:44.362Z,100.00
2022-10-18T03:10:17.146Z,100.00
2022-10-18T03:12:49.949Z,100.00
2022-10-18T03:15:22.718Z,100.00
2022-10-18T03:17:55.495Z,100.00
2022-10-18T03:20:29.660Z,100.00
2022-10-18T03:23:03.308Z,100.00
2022-10-18T03:25:36.180Z,100.00
2022-10-18T03:28:08.958Z,100.00
2022-10-18T03:30:41.758Z,100.00
2022-10-18T03:33:14.554Z,100.00
2022-10-18T03:35:48.672Z,100.00
2022-10-18T03:38:21.533Z,100.00
2022-10-18T03:40:54.312Z,100.00
2022-10-18T03:43:27.286Z,100.00
2022-10-18T03:46:00.070Z,100.00
2022-10-18T03:48:33.187Z,100.00
2022-10-18T03:51:07.389Z,100.00
2022-10-18T03:53:40.168Z,100.00
2022-10-18T03:56:12.964Z,100.00
2022-10-18T03:58:45.972Z,100.00
2022-10-18T04:01:18.933Z,100.00
2022-10-18T04:03:51.805Z,100.00
2022-10-18T04:06:26.606Z,100.00
2022-10-18T04:11:35.264Z,100.00
2022-10-18T04:14:08.095Z,100.00
2022-10-18T04:16:40.885Z,100.00
2022-10-18T04:19:13.761Z,100.00
2022-10-18T04:21:46.568Z,100.00
2022-10-18T04:24:22.751Z,100.00
2022-10-18T04:26:56.919Z,100.00
2022-10-18T04:29:29.668Z,100.00
2022-10-18T04:32:02.657Z,100.00
2022-10-18T04:34:35.462Z,100.00
2022-10-18T04:37:08.337Z,100.00
2022-10-18T04:39:41.168Z,100.00
2022-10-18T04:42:15.556Z,100.00
2022-10-18T04:44:48.478Z,100.00
2022-10-18T04:47:21.284Z,100.00
2022-10-18T04:49:54.052Z,100.00
2022-10-18T04:52:26.900Z,100.00
2022-10-18T04:54:59.664Z,100.00
2022-10-18T04:57:34.026Z,100.00
2022-10-18T05:00:08.008Z,100.00
2022-10-18T05:02:40.819Z,100.00
2022-10-18T05:05:14.319Z,100.00
2022-10-18T05:07:47.263Z,100.00
2022-10-18T05:10:20.045Z,100.00
2022-10-18T05:12:54.260Z,100.00
2022-10-18T05:15:27.102Z,100.00
2022-10-18T05:17:59.901Z,100.00
2022-10-18T05:20:32.785Z,100.00
2022-10-18T05:23:05.594Z,100.00
2022-10-18T05:25:39.601Z,100.00
2022-10-18T05:28:38.312Z,100.00
2022-10-18T05:31:08.589Z,100.00
2022-10-18T05:33:41.545Z,100.00
2022-10-18T05:36:14.345Z,100.00
2022-10-18T05:38:48.349Z,100.00
2022-10-18T05:41:21.161Z,100.00
2022-10-18T05:43:55.392Z,100.00
2022-10-18T05:46:28.166Z,100.00
2022-10-18T05:49:01.017Z,100.00
2022-10-18T05:51:33.806Z,100.00
2022-10-18T05:54:06.668Z,100.00
2022-10-18T05:59:18.573Z,100.00
2022-10-18T06:01:51.408Z,100.00
2022-10-18T06:04:24.198Z,100.00
2022-10-18T06:06:57.551Z,100.00
2022-10-18T06:09:30.726Z,100.00
2022-10-18T06:12:03.536Z,100.00
2022-10-18T06:14:38.328Z,100.00
2022-10-18T06:17:11.949Z,100.00
2022-10-18T06:19:45.668Z,100.00
2022-10-18T06:22:18.467Z,100.00
2022-10-18T06:24:56.432Z,100.00
2022-10-18T06:27:31.722Z,100.00
2022-10-18T06:30:07.188Z,100.00
2022-10-18T06:32:39.942Z,100.00
2022-10-18T06:35:12.756Z,100.00
2022-10-18T06:37:45.546Z,100.00
2022-10-18T06:40:18.740Z,100.00
2022-10-18T06:43:00.184Z,100.00
2022-10-18T06:45:40.334Z,100.00
2022-10-18T06:48:13.147Z,100.00
2022-10-18T06:50:52.699Z,100.00
2022-10-18T06:53:26.098Z,100.00
2022-10-18T06:56:01.905Z,100.00
2022-10-18T06:58:35.500Z,100.00
2022-10-18T07:01:11.694Z,100.00
2022-10-18T07:03:45.168Z,100.00
2022-10-18T07:06:19.896Z,100.00
2022-10-18T07:08:54.196Z,100.00
2022-10-18T07:11:28.013Z,100.00
2022-10-18T07:14:04.711Z,100.00
2022-10-18T07:16:38.874Z,100.00
2022-10-18T07:19:12.179Z,100.00
2022-10-18T07:21:44.991Z,100.00
2022-10-18T07:24:17.728Z,100.00
2022-10-18T07:26:50.500Z,100.00
2022-10-18T07:29:23.355Z,100.00
2022-10-18T07:31:57.526Z,100.00
2022-10-18T07:34:30.363Z,100.00
2022-10-18T07:37:03.267Z,100.00
2022-10-18T07:39:36.040Z,100.00
2022-10-18T07:42:08.831Z,100.00
2022-10-18T07:44:41.627Z,100.00
2022-10-18T07:47:16.215Z,100.00
2022-10-18T07:49:49.029Z,100.00
2022-10-18T07:52:21.893Z,100.00
2022-10-18T07:54:55.839Z,100.00
2022-10-18T07:57:28.674Z,100.00
2022-10-18T08:00:01.437Z,100.00
2022-10-18T08:02:35.975Z,100.00
2022-10-18T08:05:09.470Z,100.00
2022-10-18T08:07:42.288Z,100.00
2022-10-18T08:10:15.159Z,100.00
2022-10-18T08:12:48.129Z,100.00
2022-10-18T08:15:23.946Z,100.00
2022-10-18T08:17:58.118Z,100.00
2022-10-18T08:20:33.190Z,100.00
2022-10-18T08:23:06.233Z,100.00
2022-10-18T08:25:39.235Z,100.00
2022-10-18T08:28:13.924Z,100.00
2022-10-18T08:30:46.707Z,100.00
2022-10-18T08:33:20.888Z,100.00
2022-10-18T08:35:56.715Z,100.00
2022-10-18T08:38:30.682Z,100.00
2022-10-18T08:41:16.595Z,100.00
2022-10-18T08:44:01.092Z,100.00
2022-10-18T08:46:38.412Z,100.00
2022-10-18T08:49:23.513Z,100.00
2022-10-18T08:51:57.714Z,100.00
2022-10-18T08:54:36.065Z,100.00
2022-10-18T08:57:18.098Z,100.00
2022-10-18T08:59:50.904Z,100.00
2022-10-18T09:02:50.872Z,100.00
2022-10-18T09:05:31.660Z,100.00
2022-10-18T09:08:37.846Z,100.00
2022-10-18T09:11:26.437Z,97.48
2022-10-18T09:14:26.045Z,96.65
2022-10-18T09:17:15.686Z,95.34
2022-10-18T09:20:03.964Z,95.21
2022-10-18T09:22:52.019Z,97.04
2022-10-18T09:25:26.676Z,98.74
2022-10-18T09:28:15.987Z,100.00
2022-10-18T09:30:59.646Z,100.00
2022-10-18T09:33:44.832Z,100.00
2022-10-18T09:36:22.899Z,100.00
2022-10-18T09:39:03.269Z,100.00
2022-10-18T09:41:43.369Z,100.00
2022-10-18T09:44:22.153Z,100.00
2022-10-18T09:47:00.926Z,100.00
2022-10-18T09:49:41.427Z,100.00
2022-10-18T09:52:19.893Z,100.00
2022-10-18T09:54:57.037Z,100.00
2022-10-18T09:57:36.556Z,100.00
2022-10-18T10:00:16.405Z,100.00
2022-10-18T10:02:49.287Z,100.00
2022-10-18T10:05:22.191Z,100.00
2022-10-18T10:07:59.832Z,100.00
2022-10-18T10:10:35.115Z,100.00
2022-10-18T10:13:16.819Z,100.00
2022-10-18T10:15:55.342Z,100.00
2022-10-18T10:18:32.227Z,100.00
2022-10-18T10:21:08.107Z,100.00
2022-10-18T10:23:47.676Z,100.00
2022-10-18T10:26:26.073Z,100.00
2022-10-18T10:28:59.180Z,100.00
2022-10-18T10:31:32.930Z,100.00
2022-10-18T10:34:07.303Z,100.00
2022-10-18T10:36:48.888Z,100.00
2022-10-18T10:39:23.924Z,100.00
2022-10-18T10:42:01.331Z,100.00
2022-10-18T10:44:37.353Z,100.00
2022-10-18T10:47:10.336Z,100.00
2022-10-18T10:49:47.014Z,100.00
2022-10-18T10:52:29.049Z,100.00
2022-10-18T10:55:23.576Z,100.00
2022-10-18T10:57:58.031Z,100.00
2022-10-18T11:00:42.882Z,100.00
2022-10-18T11:03:28.382Z,99.24
2022-10-18T11:06:02.306Z,96.81
2022-10-18T11:08:43.611Z,96.04
2022-10-18T11:11:26.756Z,95.30
2022-10-18T11:14:24.629Z,96.69
2022-10-18T11:17:08.799Z,97.04
2022-10-18T11:20:13.436Z,99.81
2022-10-18T11:22:58.162Z,99.79
2022-10-18T11:25:46.640Z,100.00
2022-10-18T11:28:27.711Z,100.00
2022-10-18T11:31:13.278Z,100.00
2022-10-18T11:34:09.313Z,100.00
2022-10-18T11:36:56.849Z,100.00
2022-10-18T11:39:58.945Z,100.00
2022-10-18T11:42:40.099Z,100.00
2022-10-18T11:48:37.711Z,97.76
2022-10-18T11:51:20.106Z,98.70
2022-10-18T11:54:12.309Z,98.99
2022-10-18T11:56:53.274Z,97.73
2022-10-18T11:59:33.899Z,97.71
2022-10-18T12:02:32.306Z,95.10
2022-10-18T12:05:23.127Z,94.63
2022-10-18T12:08:03.348Z,94.75
2022-10-18T12:10:52.830Z,92.45
2022-10-18T12:13:37.871Z,90.92
2022-10-18T12:16:12.077Z,91.71
2022-10-18T12:21:35.394Z,91.00
2022-10-18T12:24:14.996Z,86.73
2022-10-18T12:26:51.968Z,85.13
2022-10-18T12:29:31.091Z,79.52
2022-10-18T12:32:10.042Z,77.73
2022-10-18T12:34:45.905Z,78.83
2022-10-18T12:37:38.749Z,78.75
2022-10-18T12:40:18.447Z,77.07
2022-10-18T12:42:54.581Z,76.48
2022-10-18T12:45:33.399Z,77.64
2022-10-18T12:48:08.926Z,74.53
2022-10-18T12:50:44.855Z,81.60
2022-10-18T12:53:26.555Z,83.49
2022-10-18T12:56:44.508Z,84.35
2022-10-18T12:59:47.700Z,81.86
2022-10-18T13:02:26.540Z,83.12
2022-10-18T13:05:02.295Z,84.96
2022-10-18T13:07:41.080Z,85.45
2022-10-18T13:10:42.327Z,81.76
2022-10-18T13:13:45.801Z,83.42
2022-10-18T13:16:37.407Z,86.17
2022-10-18T13:19:33.234Z,87.21
2022-10-18T13:22:20.698Z,88.07
2022-10-18T13:25:04.261Z,90.45
2022-10-18T13:27:47.386Z,90.85
2022-10-18T13:30:32.750Z,91.55
2022-10-18T13:33:23.434Z,92.61
2022-10-18T13:35:58.210Z,91.67
2022-10-18T13:38:57.679Z,87.70
2022-10-18T13:41:35.326Z,88.56
2022-10-18T13:44:25.456Z,91.37
2022-10-18T13:47:33.771Z,90.17
2022-10-18T13:50:25.918Z,90.49
2022-10-18T13:53:20.239Z,88.05
2022-10-18T13:56:03.560Z,83.54
2022-10-18T13:58:53.796Z,82.17
2022-10-18T14:04:46.075Z,80.89
2022-10-18T14:07:20.436Z,80.77
2022-10-18T14:09:56.862Z,78.70
2022-10-18T14:12:39.228Z,81.82
2022-10-18T14:15:19.211Z,84.06
2022-10-18T14:17:55.589Z,85.94
2022-10-18T14:20:34.590Z,85.50
2022-10-18T14:23:22.286Z,86.89
2022-10-18T14:26:06.783Z,82.64
2022-10-18T14:28:58.541Z,81.96
2022-10-18T14:31:31.917Z,85.16
2022-10-18T14:34:04.905Z,87.08
2022-10-18T14:36:42.119Z,83.27
2022-10-18T14:39:21.024Z,84.41
2022-10-18T14:41:55.244Z,85.00
2022-10-18T14:44:29.292Z,85.17
2022-10-18T14:47:04.026Z,83.77
2022-10-18T14:49:43.804Z,83.09
2022-10-18T14:52:21.135Z,83.26
2022-10-18T14:54:59.237Z,82.96
2022-10-18T14:57:35.230Z,82.92
2022-10-18T15:00:17.976Z,82.38
2022-10-18T15:02:50.916Z,83.47
2022-10-18T15:05:26.952Z,82.94
2022-10-18T15:08:01.084Z,83.21
2022-10-18T15:10:36.705Z,84.15
2022-10-18T15:13:12.641Z,85.43
2022-10-18T15:15:46.233Z,85.11
2022-10-18T15:18:23.112Z,84.47
2022-10-18T15:21:10.352Z,84.66
2022-10-18T15:23:43.217Z,84.82
2022-10-18T15:26:24.084Z,85.06
2022-10-18T15:29:01.571Z,86.10
2022-10-18T15:31:44.527Z,87.29
2022-10-18T15:34:21.020Z,87.01
2022-10-18T15:36:56.157Z,87.12
2022-10-18T15:39:31.761Z,87.41
2022-10-18T15:42:05.963Z,88.94
2022-10-18T15:44:51.013Z,89.51
2022-10-18T15:47:25.161Z,90.61
2022-10-18T15:49:59.293Z,91.25
2022-10-18T15:52:51.597Z,92.22
2022-10-18T15:55:47.884Z,93.08
2022-10-18T15:58:23.819Z,94.32
2022-10-18T16:00:59.810Z,94.85
2022-10-18T16:03:35.903Z,95.48
2022-10-18T16:06:13.347Z,95.70
2022-10-18T16:08:51.658Z,96.55
2022-10-18T16:11:26.497Z,97.12
2022-10-18T16:14:00.899Z,97.34
2022-10-18T16:16:34.416Z,97.50
2022-10-18T16:19:07.447Z,97.97
2022-10-18T16:21:40.720Z,98.24
2022-10-18T16:24:13.555Z,98.39
2022-10-18T16:26:46.508Z,99.00
2022-10-18T16:29:24.486Z,99.69
2022-10-18T16:31:58.346Z,99.66
2022-10-18T16:34:32.243Z,100.00
2022-10-18T16:37:05.128Z,100.00
2022-10-18T16:39:38.024Z,100.00
2022-10-18T16:42:10.873Z,100.00
2022-10-18T16:44:45.408Z,100.00
2022-10-18T16:47:18.256Z,100.00
2022-10-18T16:49:51.022Z,100.00
2022-10-18T16:52:23.806Z,100.00
2022-10-18T16:54:56.562Z,100.00
2022-10-18T16:57:29.398Z,100.00
2022-10-18T17:00:03.653Z,100.00
2022-10-18T17:02:36.511Z,100.00
2022-10-18T17:05:09.552Z,100.00
2022-10-18T17:07:42.646Z,100.00
2022-10-18T17:10:17.623Z,100.00
2022-10-18T17:12:50.584Z,100.00
2022-10-18T17:15:24.725Z,100.00
2022-10-18T17:17:59.598Z,100.00
2022-10-18T17:20:32.560Z,100.00
2022-10-18T17:23:05.645Z,100.00
2022-10-18T17:25:46.443Z,100.00
2022-10-18T17:28:30.810Z,100.00
2022-10-18T17:31:07.587Z,100.00
2022-10-18T17:33:40.720Z,100.00
2022-10-18T17:36:13.691Z,100.00
2022-10-18T17:38:48.276Z,100.00
2022-10-18T17:41:21.587Z,100.00
2022-10-18T17:43:54.603Z,100.00
2022-10-18T17:46:28.738Z,100.00
2022-10-18T17:49:01.798Z,100.00
2022-10-18T17:51:34.615Z,100.00
2022-10-18T17:54:08.210Z,100.00
2022-10-18T17:56:41.477Z,100.00
2022-10-18T17:59:14.287Z,100.00
2022-10-18T18:01:48.917Z,100.00
2022-10-18T18:04:21.911Z,100.00
2022-10-18T18:06:57.006Z,100.00
2022-10-18T18:09:30.194Z,100.00
2022-10-18T18:12:03.798Z,100.00
2022-10-18T18:14:36.636Z,100.00
2022-10-18T18:17:11.008Z,100.00
2022-10-18T18:19:43.863Z,100.00
2022-10-18T18:22:16.646Z,100.00
2022-10-18T18:24:49.460Z,100.00
2022-10-18T18:27:22.234Z,100.00
2022-10-18T18:29:56.224Z,100.00
2022-10-18T18:32:30.656Z,100.00
2022-10-18T18:35:05.009Z,100.00
2022-10-18T18:37:37.805Z,100.00
2022-10-18T18:40:11.148Z,100.00
2022-10-18T18:42:43.915Z,100.00
2022-10-18T18:45:16.839Z,100.00
2022-10-18T18:47:51.038Z,100.00
2022-10-18T18:50:23.844Z,100.00
2022-10-18T18:52:58.942Z,100.00
2022-10-18T18:55:32.889Z,100.00
2022-10-18T18:58:05.703Z,100.00
2022-10-18T19:00:43.303Z,100.00
2022-10-18T19:03:18.665Z,100.00
2022-10-18T19:05:51.476Z,100.00
2022-10-18T19:08:24.258Z,100.00
2022-10-18T19:10:57.045Z,100.00
2022-10-18T19:13:30.183Z,100.00
2022-10-18T19:16:20.198Z,100.00
2022-10-18T19:18:59.819Z,100.00
2022-10-18T19:21:35.385Z,100.00
2022-10-18T19:24:08.521Z,100.00
2022-10-18T19:26:44.950Z,100.00
2022-10-18T19:29:21.282Z,100.00
2022-10-18T19:31:56.140Z,100.00
2022-10-18T19:34:31.634Z,100.00
2022-10-18T19:37:05.408Z,100.00
2022-10-18T19:39:38.505Z,100.00
2022-10-18T19:42:16.017Z,100.00
2022-10-18T19:44:51.735Z,100.00
2022-10-18T19:47:24.847Z,100.00
2022-10-18T19:49:59.335Z,100.00
2022-10-18T19:52:32.570Z,100.00
2022-10-18T19:55:06.790Z,100.00
2022-10-18T19:57:39.846Z,100.00
2022-10-18T20:00:17.371Z,100.00
2022-10-18T20:02:52.318Z,100.00
2022-10-18T20:05:26.575Z,100.00
2022-10-18T20:07:59.375Z,100.00
2022-10-18T20:10:32.177Z,100.00
2022-10-18T20:13:05.020Z,100.00
2022-10-18T20:15:37.935Z,100.00
2022-10-18T20:18:10.802Z,100.00
2022-10-18T20:20:48.067Z,100.00
2022-10-18T20:23:21.741Z,100.00
2022-10-18T20:25:58.987Z,100.00
2022-10-18T20:28:31.973Z,100.00
2022-10-18T20:31:06.498Z,100.00
2022-10-18T20:33:40.028Z,100.00
2022-10-18T20:36:16.564Z,100.00
2022-10-18T20:38:50.071Z,100.00
2022-10-18T20:41:24.753Z,100.00
2022-10-18T20:43:59.301Z,100.00
2022-10-18T20:46:34.296Z,100.00
2022-10-18T20:49:08.646Z,100.00
2022-10-18T20:51:43.485Z,100.00
2022-10-18T20:54:16.372Z,100.00
2022-10-18T20:56:49.206Z,100.00
2022-10-18T20:59:21.982Z,100.00
2022-10-18T21:01:54.755Z,100.00
2022-10-18T21:04:27.753Z,100.00
2022-10-18T21:07:01.985Z,100.00
2022-10-18T21:09:35.843Z,100.00
2022-10-18T21:12:08.651Z,100.00
2022-10-18T21:14:41.878Z,100.00
2022-10-18T21:17:14.705Z,100.00
2022-10-18T21:19:47.553Z,100.00
2022-10-18T21:22:21.682Z,100.00
2022-10-18T21:24:54.464Z,100.00
2022-10-18T21:27:27.251Z,100.00
2022-10-18T21:30:00.073Z,100.00
2022-10-18T21:32:33.064Z,100.00
2022-10-18T21:35:07.355Z,100.00
2022-10-18T21:37:41.513Z,100.00
2022-10-18T21:40:14.328Z,100.00
2022-10-18T21:42:47.108Z,100.00
2022-10-18T21:45:19.900Z,100.00
2022-10-18T21:47:52.663Z,100.00
2022-10-18T21:50:25.560Z,100.00
2022-10-18T21:52:59.680Z,100.00
2022-10-18T21:55:32.488Z,100.00
2022-10-18T21:58:05.724Z,100.00
2022-10-18T22:00:39.939Z,100.00
2022-10-18T22:03:15.963Z,100.00
2022-10-18T22:05:48.747Z,100.00
2022-10-18T22:08:23.957Z,100.00
2022-10-18T22:10:58.590Z,100.00
2022-10-18T22:13:31.441Z,100.00
2022-10-18T22:16:05.777Z,100.00
2022-10-18T22:18:38.565Z,100.00
2022-10-18T22:21:13.432Z,100.00
2022-10-18T22:23:49.506Z,100.00
2022-10-18T22:26:23.881Z,100.00
2022-10-18T22:28:58.531Z,100.00
2022-10-18T22:31:33.322Z,100.00
2022-10-18T22:34:08.239Z,100.00
2022-10-18T22:36:41.211Z,100.00
2022-10-18T22:39:16.780Z,100.00
2022-10-18T22:41:55.694Z,100.00
2022-10-18T22:44:29.641Z,100.00
2022-10-18T22:47:02.930Z,100.00
2022-10-18T22:49:35.725Z,100.00
2022-10-18T22:52:08.496Z,100.00
2022-10-18T22:54:43.170Z,100.00
2022-10-18T22:57:15.951Z,100.00
2022-10-18T22:59:48.722Z,100.00
2022-10-18T23:02:21.534Z,100.00
2022-10-18T23:04:54.296Z,100.00
2022-10-18T23:07:27.103Z,100.00
2022-10-18T23:10:01.220Z,100.00
2022-10-18T23:12:34.283Z,100.00
2022-10-18T23:15:08.380Z,100.00
2022-10-18T23:17:41.175Z,100.00
2022-10-18T23:20:14.005Z,100.00
2022-10-18T23:22:46.959Z,100.00
2022-10-18T23:25:21.153Z,100.00
2022-10-18T23:27:54.156Z,100.00
2022-10-18T23:30:26.936Z,100.00
2022-10-18T23:32:59.765Z,100.00
2022-10-18T23:35:32.525Z,100.00
2022-10-18T23:38:05.368Z,100.00
2022-10-18T23:40:39.507Z,100.00
2022-10-18T23:43:12.272Z,100.00
2022-10-18T23:48:19.327Z,100.00
2022-10-18T23:50:52.373Z,100.00
2022-10-18T23:53:25.461Z,100.00
2022-10-18T23:56:01.516Z,100.00
2022-10-18T23:58:35.733Z,100.00
